PWSweather.com
Personal Weather Stations
Station Observations
LAKENACI1
Oak Shores Lake Nacimiento, Bradley, CA 93426

Oak Shores Lake NacimientoBradley, CA 93426

Lat: 35.749704, Lon: -120.988075

Elevation: 811

Station Type: Rain wise MK-III

https://www.rainwise.net/weather/JMConstructionOS

Latest ConditionsUpdated 8:19:00 PM PST Thursday, Dec 13, 2018
Currently Today's Max Today's Min Today's Average
Temperature 43.1°F6.2°C 66.2°F19.0°C 32.8°F0.4°C 44.0°F6.7°C
Dew Point 40.1°F4.5°C 47.9°F8.8°C 31.8°F-0.1°C 38.9°F3.8°C
Winds Calm Calm 4.5 mph -7.2 kmh - - 0.5 mph 0.8 kmh
Wind Gusts -- 5.5 mph8.9 kmh - -
Humidity 89% 98% 46% 85%
Pressure 29.29 in991.9 mb 29.41 in995.9 mb 29.29 in991.9 mb -
Hour Temp Dew Point Humidity Winds Wind Gusts Pressure Precip Precip Rate Daily Precip Total
08:19 PM 43.1°F6.2°C 40.1°F4.5°C 89% Calm Calm -- 29.29 in991.9 mb 0.00 in0.0 mm 0.00 in0.0 mm 0.00 in0.0 mm
08:14 PM 43.3°F6.3°C 40.6°F4.8°C 90% Calm Calm -- 29.29 in991.9 mb 0.00 in0.0 mm 0.00 in0.0 mm 0.00 in0.0 mm
08:09 PM 43.6°F6.4°C 40.6°F4.8°C 89% Calm Calm -- 29.29 in991.9 mb 0.00 in0.0 mm 0.00 in0.0 mm 0.00 in0.0 mm
08:04 PM 43.8°F6.6°C 41.1°F5.1°C 90% Calm Calm -- 29.29 in991.9 mb 0.00 in0.0 mm 0.00 in0.0 mm 0.00 in0.0 mm
07:59 PM 44.0°F6.7°C 40.7°F4.8°C 88% Calm Calm -- 29.29 in991.9 mb 0.00 in0.0 mm 0.00 in0.0 mm 0.00 in0.0 mm
07:54 PM 43.8°F6.6°C 40.5°F4.7°C 88% Calm Calm -- 29.29 in991.9 mb 0.00 in0.0 mm 0.00 in0.0 mm 0.00 in0.0 mm
07:49 PM 44.0°F6.7°C 40.4°F4.7°C 87% Calm Calm -- 29.29 in991.9 mb 0.00 in0.0 mm 0.00 in0.0 mm 0.00 in0.0 mm
07:44 PM 44.2°F6.8°C 40.6°F4.8°C 87% Calm Calm -- 29.29 in991.9 mb 0.00 in0.0 mm 0.00 in0.0 mm 0.00 in0.0 mm
07:39 PM 44.5°F6.9°C 40.9°F4.9°C 87% Calm Calm -- 29.29 in991.9 mb 0.00 in0.0 mm 0.00 in0.0 mm 0.00 in0.0 mm
07:34 PM 44.6°F7.0°C 41.0°F5.0°C 87% Calm Calm -- 29.29 in991.9 mb 0.00 in0.0 mm 0.00 in0.0 mm 0.00 in0.0 mm
07:29 PM 44.8°F7.1°C 40.9°F4.9°C 86% Calm Calm -- 29.29 in991.9 mb 0.00 in0.0 mm 0.00 in0.0 mm 0.00 in0.0 mm
07:24 PM 45.2°F7.3°C 41.0°F5.0°C 85% Calm Calm -- 29.29 in991.9 mb 0.00 in0.0 mm 0.00 in0.0 mm 0.00 in0.0 mm
07:19 PM 45.7°F7.6°C 41.8°F5.4°C 86% Calm Calm -- 29.29 in991.9 mb 0.00 in0.0 mm 0.00 in0.0 mm 0.00 in0.0 mm
07:14 PM 45.8°F7.7°C 41.2°F5.1°C 84% Calm Calm -- 29.29 in991.9 mb 0.00 in0.0 mm 0.00 in0.0 mm 0.00 in0.0 mm
07:09 PM 45.8°F7.7°C 41.2°F5.1°C 84% Calm Calm -- 29.29 in991.9 mb 0.00 in0.0 mm 0.00 in0.0 mm 0.00 in0.0 mm
07:04 PM 45.8°F7.7°C 41.2°F5.1°C 84% Calm Calm -- 29.29 in991.9 mb 0.00 in0.0 mm 0.00 in0.0 mm 0.00 in0.0 mm
06:59 PM 46.0°F7.8°C 41.1°F5.1°C 83% Calm Calm -- 29.29 in991.9 mb 0.00 in0.0 mm 0.00 in0.0 mm 0.00 in0.0 mm
06:54 PM 46.2°F7.9°C 41.0°F5.0°C 82% Calm Calm -- 29.29 in991.9 mb 0.00 in0.0 mm 0.00 in0.0 mm 0.00 in0.0 mm
06:49 PM 46.6°F8.1°C 41.4°F5.2°C 82% Calm Calm -- 29.30 in992.2 mb 0.00 in0.0 mm 0.00 in0.0 mm 0.00 in0.0 mm
06:44 PM 47.1°F8.4°C 41.9°F5.5°C 82% Calm Calm -- 29.29 in991.9 mb 0.00 in0.0 mm 0.00 in0.0 mm 0.00 in0.0 mm
06:39 PM 47.3°F8.5°C 41.8°F5.4°C 81% Calm Calm -- 29.29 in991.9 mb 0.00 in0.0 mm 0.00 in0.0 mm 0.00 in0.0 mm
06:34 PM 47.3°F8.5°C 41.4°F5.2°C 80% 0.1 mph SW0.2 kmh SW 0.6 mph1.0 kmh 29.29 in991.9 mb 0.00 in0.0 mm 0.00 in0.0 mm 0.00 in0.0 mm
06:29 PM 47.6°F8.7°C 41.7°F5.4°C 80% Calm Calm -- 29.29 in991.9 mb 0.00 in0.0 mm 0.00 in0.0 mm 0.00 in0.0 mm
06:24 PM 47.7°F8.7°C 41.5°F5.3°C 79% Calm Calm -- 29.29 in991.9 mb 0.00 in0.0 mm 0.00 in0.0 mm 0.00 in0.0 mm
06:19 PM 48.0°F8.9°C 41.8°F5.4°C 79% Calm Calm -- 29.29 in991.9 mb 0.00 in0.0 mm 0.00 in0.0 mm 0.00 in0.0 mm
06:14 PM 48.2°F9.0°C 42.0°F5.6°C 79% Calm Calm -- 29.29 in991.9 mb 0.00 in0.0 mm 0.00 in0.0 mm 0.00 in0.0 mm
06:09 PM 48.4°F9.1°C 42.2°F5.7°C 79% Calm Calm -- 29.29 in991.9 mb 0.00 in0.0 mm 0.00 in0.0 mm 0.00 in0.0 mm
06:04 PM 48.9°F9.4°C 42.3°F5.7°C 78% Calm Calm -- 29.29 in991.9 mb 0.00 in0.0 mm 0.00 in0.0 mm 0.00 in0.0 mm
05:59 PM 49.4°F9.7°C 43.2°F6.2°C 79% Calm Calm -- 29.29 in991.9 mb 0.00 in0.0 mm 0.00 in0.0 mm 0.00 in0.0 mm
05:54 PM 49.9°F9.9°C 43.0°F6.1°C 77% Calm Calm -- 29.29 in991.9 mb 0.00 in0.0 mm 0.00 in0.0 mm 0.00 in0.0 mm
05:49 PM 50.2°F10.1°C 42.6°F5.9°C 75% Calm Calm -- 29.29 in991.9 mb 0.00 in0.0 mm 0.00 in0.0 mm 0.00 in0.0 mm
05:44 PM 50.6°F10.3°C 43.0°F6.1°C 75% Calm Calm -- 29.29 in991.9 mb 0.00 in0.0 mm 0.00 in0.0 mm 0.00 in0.0 mm
05:39 PM 51.0°F10.6°C 43.4°F6.3°C 75% Calm Calm -- 29.29 in991.9 mb 0.00 in0.0 mm 0.00 in0.0 mm 0.00 in0.0 mm
05:34 PM 51.6°F10.9°C 43.2°F6.2°C 73% Calm Calm -- 29.29 in991.9 mb 0.00 in0.0 mm 0.00 in0.0 mm 0.00 in0.0 mm
05:29 PM 52.3°F11.3°C 43.5°F6.4°C 72% Calm Calm -- 29.29 in991.9 mb 0.00 in0.0 mm 0.00 in0.0 mm 0.00 in0.0 mm
05:24 PM 53.1°F11.7°C 43.6°F6.4°C 70% Calm Calm -- 29.30 in992.2 mb 0.00 in0.0 mm 0.00 in0.0 mm 0.00 in0.0 mm
05:19 PM 54.0°F12.2°C 44.1°F6.7°C 69% Calm Calm -- 29.30 in992.2 mb 0.00 in0.0 mm 0.00 in0.0 mm 0.00 in0.0 mm
05:14 PM 54.9°F12.7°C 44.5°F6.9°C 68% Calm Calm -- 29.30 in992.2 mb 0.00 in0.0 mm 0.00 in0.0 mm 0.00 in0.0 mm
05:09 PM 55.6°F13.1°C 44.0°F6.7°C 65% 0.1 mph SW0.2 kmh SW 0.7 mph1.1 kmh 29.30 in992.2 mb 0.00 in0.0 mm 0.00 in0.0 mm 0.00 in0.0 mm
05:04 PM 56.5°F13.6°C 44.5°F6.9°C 64% 0.2 mph SW0.3 kmh SW 0.4 mph0.6 kmh 29.30 in992.2 mb 0.00 in0.0 mm 0.00 in0.0 mm 0.00 in0.0 mm
04:59 PM 57.6°F14.2°C 44.7°F7.1°C 62% Calm Calm -- 29.30 in992.2 mb 0.00 in0.0 mm 0.00 in0.0 mm 0.00 in0.0 mm
04:54 PM 58.6°F14.8°C 45.2°F7.3°C 61% Calm Calm -- 29.31 in992.6 mb 0.00 in0.0 mm 0.00 in0.0 mm 0.00 in0.0 mm
04:49 PM 59.7°F15.4°C 45.3°F7.4°C 59% Calm Calm -- 29.30 in992.2 mb 0.00 in0.0 mm 0.00 in0.0 mm 0.00 in0.0 mm
04:44 PM 60.8°F16.0°C 46.4°F8.0°C 59% Calm Calm -- 29.30 in992.2 mb 0.00 in0.0 mm 0.00 in0.0 mm 0.00 in0.0 mm
04:39 PM 61.9°F16.6°C 46.5°F8.1°C 57% Calm Calm -- 29.30 in992.2 mb 0.00 in0.0 mm 0.00 in0.0 mm 0.00 in0.0 mm
04:34 PM 62.9°F17.2°C 46.5°F8.1°C 55% Calm Calm -- 29.30 in992.2 mb 0.00 in0.0 mm 0.00 in0.0 mm 0.00 in0.0 mm
04:29 PM 63.2°F17.3°C 45.3°F7.4°C 52% Calm Calm -- 29.30 in992.2 mb 0.00 in0.0 mm 0.00 in0.0 mm 0.00 in0.0 mm
04:24 PM 63.2°F17.3°C 45.3°F7.4°C 52% Calm Calm -- 29.30 in992.2 mb 0.00 in0.0 mm 0.00 in0.0 mm 0.00 in0.0 mm
04:19 PM 63.7°F17.6°C 44.7°F7.1°C 50% 0.5 mph SW0.8 kmh SW 1.1 mph1.8 kmh 29.29 in991.9 mb 0.00 in0.0 mm 0.00 in0.0 mm 0.00 in0.0 mm
04:14 PM 63.6°F17.6°C 44.1°F6.7°C 49% Calm Calm -- 29.29 in991.9 mb 0.00 in0.0 mm 0.00 in0.0 mm 0.00 in0.0 mm
04:09 PM 63.7°F17.6°C 44.2°F6.8°C 49% 0.9 mph SW1.4 kmh SW 1.4 mph2.3 kmh 29.29 in991.9 mb 0.00 in0.0 mm 0.00 in0.0 mm 0.00 in0.0 mm
04:04 PM 65.0°F18.3°C 44.8°F7.1°C 48% 0.6 mph SW1.0 kmh SW 1.4 mph2.3 kmh 29.29 in991.9 mb 0.00 in0.0 mm 0.00 in0.0 mm 0.00 in0.0 mm
03:59 PM 65.8°F18.8°C 45.6°F7.6°C 48% 0.7 mph SW1.1 kmh SW 1.1 mph1.8 kmh 29.29 in991.9 mb 0.00 in0.0 mm 0.00 in0.0 mm 0.00 in0.0 mm
03:54 PM 66.0°F18.9°C 45.2°F7.3°C 47% Calm Calm -- 29.29 in991.9 mb 0.00 in0.0 mm 0.00 in0.0 mm 0.00 in0.0 mm
03:49 PM 66.2°F19.0°C 45.4°F7.4°C 47% Calm Calm -- 29.29 in991.9 mb 0.00 in0.0 mm 0.00 in0.0 mm 0.00 in0.0 mm
03:44 PM 66.1°F18.9°C 45.3°F7.4°C 47% Calm Calm -- 29.29 in991.9 mb 0.00 in0.0 mm 0.00 in0.0 mm 0.00 in0.0 mm
03:39 PM 65.9°F18.8°C 45.1°F7.3°C 47% 0.1 mph SW0.2 kmh SW 0.7 mph1.1 kmh 29.29 in991.9 mb 0.00 in0.0 mm 0.00 in0.0 mm 0.00 in0.0 mm
03:34 PM 65.7°F18.7°C 44.9°F7.2°C 47% 0.2 mph SW0.3 kmh SW 0.8 mph1.3 kmh 29.29 in991.9 mb 0.00 in0.0 mm 0.00 in0.0 mm 0.00 in0.0 mm
03:29 PM 65.5°F18.6°C 44.2°F6.8°C 46% 0.5 mph SW0.8 kmh SW 1.9 mph3.1 kmh 29.29 in991.9 mb 0.00 in0.0 mm 0.00 in0.0 mm 0.00 in0.0 mm
03:24 PM 65.4°F18.6°C 45.2°F7.3°C 48% 0.8 mph SW1.3 kmh SW 2.2 mph3.5 kmh 29.29 in991.9 mb 0.00 in0.0 mm 0.00 in0.0 mm 0.00 in0.0 mm
03:19 PM 65.3°F18.5°C 45.6°F7.6°C 49% 0.7 mph SW1.1 kmh SW 1.8 mph2.9 kmh 29.29 in991.9 mb 0.00 in0.0 mm 0.00 in0.0 mm 0.00 in0.0 mm
03:14 PM 65.2°F18.4°C 45.6°F7.6°C 49% 0.5 mph SSE0.8 kmh SSE 1.8 mph2.9 kmh 29.29 in991.9 mb 0.00 in0.0 mm 0.00 in0.0 mm 0.00 in0.0 mm
03:09 PM 64.9°F18.3°C 45.3°F7.4°C 49% 0.6 mph SSE1.0 kmh SSE 1.7 mph2.7 kmh 29.30 in992.2 mb 0.00 in0.0 mm 0.00 in0.0 mm 0.00 in0.0 mm
03:04 PM 64.5°F18.1°C 45.4°F7.4°C 50% 1.3 mph SSE2.1 kmh SSE 2.1 mph3.4 kmh 29.30 in992.2 mb 0.00 in0.0 mm 0.00 in0.0 mm 0.00 in0.0 mm
02:59 PM 64.1°F17.8°C 45.1°F7.3°C 50% 0.5 mph SSW0.8 kmh SSW 1.5 mph2.4 kmh 29.30 in992.2 mb 0.00 in0.0 mm 0.00 in0.0 mm 0.00 in0.0 mm
02:54 PM 63.7°F17.6°C 44.7°F7.1°C 50% 1.3 mph SSE2.1 kmh SSE 2.1 mph3.4 kmh 29.30 in992.2 mb 0.00 in0.0 mm 0.00 in0.0 mm 0.00 in0.0 mm
02:49 PM 63.1°F17.3°C 44.7°F7.1°C 51% 1.3 mph SSE2.1 kmh SSE 2.1 mph3.4 kmh 29.30 in992.2 mb 0.00 in0.0 mm 0.00 in0.0 mm 0.00 in0.0 mm
02:44 PM 62.5°F16.9°C 44.1°F6.7°C 51% 2.3 mph SSE3.7 kmh SSE 3.3 mph5.3 kmh 29.30 in992.2 mb 0.00 in0.0 mm 0.00 in0.0 mm 0.00 in0.0 mm
02:39 PM 62.1°F16.7°C 43.8°F6.6°C 51% 2.1 mph SE3.4 kmh SE 3.0 mph4.8 kmh 29.30 in992.2 mb 0.00 in0.0 mm 0.00 in0.0 mm 0.00 in0.0 mm
02:34 PM 62.0°F16.7°C 43.7°F6.5°C 51% 4.5 mph ESE7.2 kmh ESE 5.4 mph8.7 kmh 29.30 in992.2 mb 0.00 in0.0 mm 0.00 in0.0 mm 0.00 in0.0 mm
02:29 PM 62.0°F16.7°C 44.7°F7.1°C 53% 4.2 mph ESE6.8 kmh ESE 5.5 mph8.9 kmh 29.30 in992.2 mb 0.00 in0.0 mm 0.00 in0.0 mm 0.00 in0.0 mm
02:24 PM 62.1°F16.7°C 44.8°F7.1°C 53% 3.6 mph ESE5.8 kmh ESE 5.0 mph8.0 kmh 29.31 in992.6 mb 0.00 in0.0 mm 0.00 in0.0 mm 0.00 in0.0 mm
02:19 PM 62.3°F16.8°C 44.9°F7.2°C 53% 3.2 mph SE5.1 kmh SE 4.2 mph6.8 kmh 29.31 in992.6 mb 0.00 in0.0 mm 0.00 in0.0 mm 0.00 in0.0 mm
02:14 PM 62.7°F17.1°C 46.3°F7.9°C 55% 1.9 mph ESE3.1 kmh ESE 3.2 mph5.1 kmh 29.31 in992.6 mb 0.00 in0.0 mm 0.00 in0.0 mm 0.00 in0.0 mm
02:09 PM 62.8°F17.1°C 46.4°F8.0°C 55% 1.5 mph ESE2.4 kmh ESE 3.0 mph4.8 kmh 29.31 in992.6 mb 0.00 in0.0 mm 0.00 in0.0 mm 0.00 in0.0 mm
02:04 PM 62.7°F17.1°C 46.8°F8.2°C 56% 1.7 mph SW2.7 kmh SW 2.9 mph4.7 kmh 29.31 in992.6 mb 0.00 in0.0 mm 0.00 in0.0 mm 0.00 in0.0 mm
01:59 PM 62.4°F16.9°C 47.9°F8.8°C 59% 1.2 mph SSW1.9 kmh SSW 2.3 mph3.7 kmh 29.31 in992.6 mb 0.00 in0.0 mm 0.00 in0.0 mm 0.00 in0.0 mm
01:54 PM 61.6°F16.4°C 47.6°F8.7°C 60% 0.7 mph WSW1.1 kmh WSW 1.6 mph2.6 kmh 29.32 in992.9 mb 0.00 in0.0 mm 0.00 in0.0 mm 0.00 in0.0 mm
01:49 PM 60.9°F16.1°C 46.9°F8.3°C 60% 0.4 mph WSW0.6 kmh WSW 1.3 mph2.1 kmh 29.32 in992.9 mb 0.00 in0.0 mm 0.00 in0.0 mm 0.00 in0.0 mm
01:44 PM 60.0°F15.6°C 46.1°F7.8°C 60% 1.9 mph WSW3.1 kmh WSW 4.0 mph6.4 kmh 29.32 in992.9 mb 0.00 in0.0 mm 0.00 in0.0 mm 0.00 in0.0 mm
01:39 PM 59.4°F15.2°C 46.4°F8.0°C 62% 2.7 mph SW4.3 kmh SW 4.2 mph6.8 kmh 29.32 in992.9 mb 0.00 in0.0 mm 0.00 in0.0 mm 0.00 in0.0 mm
01:34 PM 59.2°F15.1°C 46.2°F7.9°C 62% 2.6 mph WSW4.2 kmh WSW 3.8 mph6.1 kmh 29.32 in992.9 mb 0.00 in0.0 mm 0.00 in0.0 mm 0.00 in0.0 mm
01:29 PM 59.2°F15.1°C 46.6°F8.1°C 63% 2.7 mph SW4.3 kmh SW 3.8 mph6.1 kmh 29.33 in993.2 mb 0.00 in0.0 mm 0.00 in0.0 mm 0.00 in0.0 mm
01:24 PM 59.3°F15.2°C 47.1°F8.4°C 64% 1.6 mph WSW2.6 kmh WSW 3.0 mph4.8 kmh 29.33 in993.2 mb 0.00 in0.0 mm 0.00 in0.0 mm 0.00 in0.0 mm
01:19 PM 59.1°F15.1°C 47.3°F8.5°C 65% 2.1 mph SW3.4 kmh SW 3.2 mph5.1 kmh 29.33 in993.2 mb 0.00 in0.0 mm 0.00 in0.0 mm 0.00 in0.0 mm
01:14 PM 58.2°F14.6°C 46.9°F8.3°C 66% 0.9 mph WSW1.4 kmh WSW 2.3 mph3.7 kmh 29.34 in993.6 mb 0.00 in0.0 mm 0.00 in0.0 mm 0.00 in0.0 mm
01:09 PM 58.0°F14.4°C 46.3°F7.9°C 65% 2.4 mph WSW3.9 kmh WSW 3.3 mph5.3 kmh 29.34 in993.6 mb 0.00 in0.0 mm 0.00 in0.0 mm 0.00 in0.0 mm
01:04 PM 58.1°F14.5°C 46.0°F7.8°C 64% 2.4 mph WSW3.9 kmh WSW 3.9 mph6.3 kmh 29.34 in993.6 mb 0.00 in0.0 mm 0.00 in0.0 mm 0.00 in0.0 mm
12:59 PM 58.0°F14.4°C 46.7°F8.2°C 66% 1.5 mph SW2.4 kmh SW 2.7 mph4.3 kmh 29.34 in993.6 mb 0.00 in0.0 mm 0.00 in0.0 mm 0.00 in0.0 mm
12:54 PM 57.7°F14.3°C 46.8°F8.2°C 67% 1.3 mph SW2.1 kmh SW 2.4 mph3.9 kmh 29.34 in993.6 mb 0.00 in0.0 mm 0.00 in0.0 mm 0.00 in0.0 mm
12:49 PM 57.0°F13.9°C 46.9°F8.3°C 69% 1.6 mph SSW2.6 kmh SSW 2.9 mph4.7 kmh 29.35 in993.9 mb 0.00 in0.0 mm 0.00 in0.0 mm 0.00 in0.0 mm
12:44 PM 56.2°F13.4°C 46.5°F8.1°C 70% 1.1 mph SW1.8 kmh SW 2.5 mph4.0 kmh 29.35 in993.9 mb 0.00 in0.0 mm 0.00 in0.0 mm 0.00 in0.0 mm
12:39 PM 55.4°F13.0°C 46.9°F8.3°C 73% 2.1 mph SW3.4 kmh SW 3.3 mph5.3 kmh 29.35 in993.9 mb 0.00 in0.0 mm 0.00 in0.0 mm 0.00 in0.0 mm
12:34 PM 54.1°F12.3°C 47.1°F8.4°C 77% 1.0 mph SW1.6 kmh SW 2.1 mph3.4 kmh 29.35 in993.9 mb 0.00 in0.0 mm 0.00 in0.0 mm 0.00 in0.0 mm
12:29 PM 52.8°F11.6°C 46.5°F8.1°C 79% 0.7 mph WNW1.1 kmh WNW 2.0 mph3.2 kmh 29.36 in994.2 mb 0.00 in0.0 mm 0.00 in0.0 mm 0.00 in0.0 mm
12:24 PM 52.3°F11.3°C 46.3°F7.9°C 80% 2.6 mph WSW4.2 kmh WSW 3.7 mph6.0 kmh 29.36 in994.2 mb 0.00 in0.0 mm 0.00 in0.0 mm 0.00 in0.0 mm
12:19 PM 52.2°F11.2°C 46.9°F8.3°C 82% 2.4 mph SW3.9 kmh SW 3.5 mph5.6 kmh 29.36 in994.2 mb 0.00 in0.0 mm 0.00 in0.0 mm 0.00 in0.0 mm
12:14 PM 52.0°F11.1°C 47.3°F8.5°C 84% 1.6 mph SW2.6 kmh SW 3.3 mph5.3 kmh 29.37 in994.6 mb 0.00 in0.0 mm 0.00 in0.0 mm 0.00 in0.0 mm
12:09 PM 51.4°F10.8°C 46.7°F8.2°C 84% 1.5 mph S2.4 kmh S 2.8 mph4.5 kmh 29.37 in994.6 mb 0.00 in0.0 mm 0.00 in0.0 mm 0.00 in0.0 mm
12:04 PM 50.7°F10.4°C 47.0°F8.3°C 87% 1.7 mph SW2.7 kmh SW 2.9 mph4.7 kmh 29.37 in994.6 mb 0.00 in0.0 mm 0.00 in0.0 mm 0.00 in0.0 mm
11:59 AM 49.9°F9.9°C 46.8°F8.2°C 89% 2.4 mph SW3.9 kmh SW 3.0 mph4.8 kmh 29.37 in994.6 mb 0.00 in0.0 mm 0.00 in0.0 mm 0.00 in0.0 mm
11:54 AM 49.0°F9.4°C 46.5°F8.1°C 91% 1.7 mph SW2.7 kmh SW 2.8 mph4.5 kmh 29.37 in994.6 mb 0.00 in0.0 mm 0.00 in0.0 mm 0.00 in0.0 mm
11:49 AM 48.2°F9.0°C 46.6°F8.1°C 94% 1.5 mph WSW2.4 kmh WSW 2.6 mph4.2 kmh 29.38 in994.9 mb 0.00 in0.0 mm 0.00 in0.0 mm 0.00 in0.0 mm
11:44 AM 47.4°F8.6°C 46.0°F7.8°C 95% 2.1 mph SW3.4 kmh SW 3.2 mph5.1 kmh 29.38 in994.9 mb 0.00 in0.0 mm 0.00 in0.0 mm 0.00 in0.0 mm
11:39 AM 46.6°F8.1°C 45.8°F7.7°C 97% 1.9 mph SW3.1 kmh SW 2.6 mph4.2 kmh 29.38 in994.9 mb 0.00 in0.0 mm 0.00 in0.0 mm 0.00 in0.0 mm
11:34 AM 46.2°F7.9°C 45.1°F7.3°C 96% 2.2 mph SW3.5 kmh SW 2.9 mph4.7 kmh 29.39 in995.3 mb 0.00 in0.0 mm 0.00 in0.0 mm 0.00 in0.0 mm
11:29 AM 45.4°F7.4°C 44.9°F7.2°C 98% 1.0 mph SW1.6 kmh SW 2.2 mph3.5 kmh 29.39 in995.3 mb 0.00 in0.0 mm 0.00 in0.0 mm 0.00 in0.0 mm
11:24 AM 44.6°F7.0°C 43.8°F6.6°C 97% 1.1 mph SSW1.8 kmh SSW 2.1 mph3.4 kmh 29.39 in995.3 mb 0.00 in0.0 mm 0.00 in0.0 mm 0.00 in0.0 mm
11:19 AM 43.9°F6.6°C 43.4°F6.3°C 98% 1.6 mph SW2.6 kmh SW 2.3 mph3.7 kmh 29.39 in995.3 mb 0.00 in0.0 mm 0.00 in0.0 mm 0.00 in0.0 mm
11:14 AM 43.5°F6.4°C 43.0°F6.1°C 98% 1.7 mph SW2.7 kmh SW 3.1 mph5.0 kmh 29.39 in995.3 mb 0.00 in0.0 mm 0.00 in0.0 mm 0.00 in0.0 mm
11:09 AM 43.1°F6.2°C 42.3°F5.7°C 97% 1.9 mph SSW3.1 kmh SSW 3.4 mph5.5 kmh 29.39 in995.3 mb 0.00 in0.0 mm 0.00 in0.0 mm 0.00 in0.0 mm
11:04 AM 42.4°F5.8°C 41.9°F5.5°C 98% 1.8 mph SW2.9 kmh SW 3.1 mph5.0 kmh 29.39 in995.3 mb 0.00 in0.0 mm 0.00 in0.0 mm 0.00 in0.0 mm
10:59 AM 42.1°F5.6°C 41.6°F5.3°C 98% 2.0 mph SW3.2 kmh SW 2.9 mph4.7 kmh 29.40 in995.6 mb 0.00 in0.0 mm 0.00 in0.0 mm 0.00 in0.0 mm
10:54 AM 42.1°F5.6°C 41.3°F5.2°C 97% 2.6 mph SW4.2 kmh SW 3.8 mph6.1 kmh 29.40 in995.6 mb 0.00 in0.0 mm 0.00 in0.0 mm 0.00 in0.0 mm
10:49 AM 42.2°F5.7°C 41.7°F5.4°C 98% 1.4 mph SW2.3 kmh SW 2.9 mph4.7 kmh 29.40 in995.6 mb 0.00 in0.0 mm 0.00 in0.0 mm 0.00 in0.0 mm
10:44 AM 41.7°F5.4°C 40.9°F4.9°C 97% 1.2 mph SW1.9 kmh SW 2.3 mph3.7 kmh 29.40 in995.6 mb 0.00 in0.0 mm 0.00 in0.0 mm 0.00 in0.0 mm
10:39 AM 41.3°F5.2°C 40.8°F4.9°C 98% Calm Calm -- 29.41 in995.9 mb 0.00 in0.0 mm 0.00 in0.0 mm 0.00 in0.0 mm
10:34 AM 41.0°F5.0°C 40.2°F4.6°C 97% Calm Calm 0.4 mph0.6 kmh 29.41 in995.9 mb 0.00 in0.0 mm 0.00 in0.0 mm 0.00 in0.0 mm
10:29 AM 40.5°F4.7°C 40.0°F4.4°C 98% Calm Calm -- 29.41 in995.9 mb 0.00 in0.0 mm 0.00 in0.0 mm 0.00 in0.0 mm
10:24 AM 40.3°F4.6°C 39.8°F4.3°C 98% 0.4 mph S0.6 kmh S 1.1 mph1.8 kmh 29.41 in995.9 mb 0.00 in0.0 mm 0.00 in0.0 mm 0.00 in0.0 mm
10:19 AM 40.1°F4.5°C 39.6°F4.2°C 98% 0.3 mph SSE0.5 kmh SSE 0.9 mph1.4 kmh 29.41 in995.9 mb 0.00 in0.0 mm 0.00 in0.0 mm 0.00 in0.0 mm
10:14 AM 39.7°F4.3°C 39.2°F4.0°C 98% 0.1 mph SSE0.2 kmh SSE 0.4 mph0.6 kmh 29.41 in995.9 mb 0.00 in0.0 mm 0.00 in0.0 mm 0.00 in0.0 mm
10:09 AM 39.3°F4.1°C 38.5°F3.6°C 97% Calm Calm 0.3 mph0.5 kmh 29.41 in995.9 mb 0.00 in0.0 mm 0.00 in0.0 mm 0.00 in0.0 mm
10:04 AM 39.3°F4.1°C 38.8°F3.8°C 98% 1.1 mph SW1.8 kmh SW 2.5 mph4.0 kmh 29.41 in995.9 mb 0.00 in0.0 mm 0.00 in0.0 mm 0.00 in0.0 mm
09:59 AM 39.1°F3.9°C 38.6°F3.7°C 98% 0.2 mph SSE0.3 kmh SSE 0.5 mph0.8 kmh 29.41 in995.9 mb 0.00 in0.0 mm 0.00 in0.0 mm 0.00 in0.0 mm
09:54 AM 38.5°F3.6°C 38.0°F3.3°C 98% 0.1 mph SSW0.2 kmh SSW 0.3 mph0.5 kmh 29.41 in995.9 mb 0.00 in0.0 mm 0.00 in0.0 mm 0.00 in0.0 mm
09:49 AM 38.2°F3.4°C 37.7°F3.2°C 98% Calm Calm -- 29.41 in995.9 mb 0.00 in0.0 mm 0.00 in0.0 mm 0.00 in0.0 mm
09:44 AM 38.1°F3.4°C 37.6°F3.1°C 98% Calm Calm -- 29.41 in995.9 mb 0.00 in0.0 mm 0.00 in0.0 mm 0.00 in0.0 mm
09:39 AM 38.0°F3.3°C 37.5°F3.1°C 98% Calm Calm 0.3 mph0.5 kmh 29.41 in995.9 mb 0.00 in0.0 mm 0.00 in0.0 mm 0.00 in0.0 mm
09:34 AM 37.6°F3.1°C 37.1°F2.8°C 98% Calm Calm -- 29.41 in995.9 mb 0.00 in0.0 mm 0.00 in0.0 mm 0.00 in0.0 mm
09:29 AM 37.2°F2.9°C 36.7°F2.6°C 98% 0.2 mph ESE0.3 kmh ESE 0.4 mph0.6 kmh 29.41 in995.9 mb 0.00 in0.0 mm 0.00 in0.0 mm 0.00 in0.0 mm
09:24 AM 36.8°F2.7°C 36.3°F2.4°C 98% Calm Calm -- 29.41 in995.9 mb 0.00 in0.0 mm 0.00 in0.0 mm 0.00 in0.0 mm
09:19 AM 36.2°F2.3°C 35.4°F1.9°C 97% 0.5 mph ENE0.8 kmh ENE 0.9 mph1.4 kmh 29.41 in995.9 mb 0.00 in0.0 mm 0.00 in0.0 mm 0.00 in0.0 mm
09:14 AM 36.1°F2.3°C 35.6°F2.0°C 98% 0.4 mph NNW0.6 kmh NNW 0.9 mph1.4 kmh 29.40 in995.6 mb 0.00 in0.0 mm 0.00 in0.0 mm 0.00 in0.0 mm
09:09 AM 36.0°F2.2°C 35.5°F1.9°C 98% 0.5 mph NNW0.8 kmh NNW 0.9 mph1.4 kmh 29.40 in995.6 mb 0.00 in0.0 mm 0.00 in0.0 mm 0.00 in0.0 mm
09:04 AM 36.1°F2.3°C 35.6°F2.0°C 98% Calm Calm -- 29.40 in995.6 mb 0.00 in0.0 mm 0.00 in0.0 mm 0.00 in0.0 mm
08:59 AM 36.0°F2.2°C 35.5°F1.9°C 98% 0.3 mph WNW0.5 kmh WNW 0.9 mph1.4 kmh 29.40 in995.6 mb 0.00 in0.0 mm 0.00 in0.0 mm 0.00 in0.0 mm
08:54 AM 35.8°F2.1°C 35.3°F1.8°C 98% Calm Calm -- 29.40 in995.6 mb 0.00 in0.0 mm 0.00 in0.0 mm 0.00 in0.0 mm
08:49 AM 35.6°F2.0°C 35.1°F1.7°C 98% Calm Calm -- 29.40 in995.6 mb 0.00 in0.0 mm 0.00 in0.0 mm 0.00 in0.0 mm
08:44 AM 35.5°F1.9°C 35.0°F1.7°C 98% 0.6 mph WNW1.0 kmh WNW 1.2 mph1.9 kmh 29.40 in995.6 mb 0.00 in0.0 mm 0.00 in0.0 mm 0.00 in0.0 mm
08:39 AM 35.5°F1.9°C 35.0°F1.7°C 98% 0.7 mph WNW1.1 kmh WNW 1.2 mph1.9 kmh 29.40 in995.6 mb 0.00 in0.0 mm 0.00 in0.0 mm 0.00 in0.0 mm
08:34 AM 35.4°F1.9°C 34.9°F1.6°C 98% Calm Calm -- 29.40 in995.6 mb 0.00 in0.0 mm 0.00 in0.0 mm 0.00 in0.0 mm
08:29 AM 35.2°F1.8°C 34.4°F1.3°C 97% Calm Calm -- 29.39 in995.3 mb 0.00 in0.0 mm 0.00 in0.0 mm 0.00 in0.0 mm
08:24 AM 35.2°F1.8°C 34.7°F1.5°C 98% Calm Calm -- 29.39 in995.3 mb 0.00 in0.0 mm 0.00 in0.0 mm 0.00 in0.0 mm
08:19 AM 35.1°F1.7°C 34.6°F1.4°C 98% 0.1 mph NNW0.2 kmh NNW 0.6 mph1.0 kmh 29.39 in995.3 mb 0.00 in0.0 mm 0.00 in0.0 mm 0.00 in0.0 mm
08:14 AM 34.9°F1.6°C 34.4°F1.3°C 98% Calm Calm -- 29.39 in995.3 mb 0.00 in0.0 mm 0.00 in0.0 mm 0.00 in0.0 mm
08:09 AM 34.7°F1.5°C 34.2°F1.2°C 98% Calm Calm -- 29.39 in995.3 mb 0.00 in0.0 mm 0.00 in0.0 mm 0.00 in0.0 mm
08:04 AM 34.6°F1.4°C 34.1°F1.2°C 98% 0.1 mph NNW0.2 kmh NNW 0.3 mph0.5 kmh 29.39 in995.3 mb 0.00 in0.0 mm 0.00 in0.0 mm 0.00 in0.0 mm
07:59 AM 34.5°F1.4°C 33.7°F0.9°C 97% Calm Calm -- 29.39 in995.3 mb 0.00 in0.0 mm 0.00 in0.0 mm 0.00 in0.0 mm
07:54 AM 34.3°F1.3°C 33.5°F0.8°C 97% 0.1 mph NNE0.2 kmh NNE 0.4 mph0.6 kmh 29.39 in995.3 mb 0.00 in0.0 mm 0.00 in0.0 mm 0.00 in0.0 mm
07:49 AM 34.2°F1.2°C 33.7°F0.9°C 98% Calm Calm -- 29.39 in995.3 mb 0.00 in0.0 mm 0.00 in0.0 mm 0.00 in0.0 mm
07:44 AM 34.0°F1.1°C 33.5°F0.8°C 98% Calm Calm -- 29.39 in995.3 mb 0.00 in0.0 mm 0.00 in0.0 mm 0.00 in0.0 mm
07:39 AM 34.0°F1.1°C 33.2°F0.7°C 97% 0.6 mph NNE1.0 kmh NNE 1.7 mph2.7 kmh 29.39 in995.3 mb 0.00 in0.0 mm 0.00 in0.0 mm 0.00 in0.0 mm
07:34 AM 34.1°F1.2°C 33.6°F0.9°C 98% 0.7 mph NW1.1 kmh NW 1.3 mph2.1 kmh 29.39 in995.3 mb 0.00 in0.0 mm 0.00 in0.0 mm 0.00 in0.0 mm
07:29 AM 34.2°F1.2°C 33.4°F0.8°C 97% 1.1 mph NW1.8 kmh NW 2.0 mph3.2 kmh 29.39 in995.3 mb 0.00 in0.0 mm 0.00 in0.0 mm 0.00 in0.0 mm
07:24 AM 34.3°F1.3°C 33.5°F0.8°C 97% 0.3 mph WNW0.5 kmh WNW 0.7 mph1.1 kmh 29.39 in995.3 mb 0.00 in0.0 mm 0.00 in0.0 mm 0.00 in0.0 mm
07:19 AM 34.3°F1.3°C 33.8°F1.0°C 98% 0.3 mph WSW0.5 kmh WSW 0.7 mph1.1 kmh 29.39 in995.3 mb 0.00 in0.0 mm 0.00 in0.0 mm 0.00 in0.0 mm
07:14 AM 34.2°F1.2°C 33.7°F0.9°C 98% Calm Calm -- 29.39 in995.3 mb 0.00 in0.0 mm 0.00 in0.0 mm 0.00 in0.0 mm
07:09 AM 34.2°F1.2°C 33.4°F0.8°C 97% 0.2 mph N0.3 kmh N 0.4 mph0.6 kmh 29.39 in995.3 mb 0.00 in0.0 mm 0.00 in0.0 mm 0.00 in0.0 mm
07:04 AM 34.2°F1.2°C 33.4°F0.8°C 97% Calm Calm -- 29.39 in995.3 mb 0.00 in0.0 mm 0.00 in0.0 mm 0.00 in0.0 mm
06:59 AM 34.1°F1.2°C 33.3°F0.7°C 97% 0.1 mph N0.2 kmh N 0.3 mph0.5 kmh 29.39 in995.3 mb 0.00 in0.0 mm 0.00 in0.0 mm 0.00 in0.0 mm
06:54 AM 34.1°F1.2°C 33.6°F0.9°C 98% 0.1 mph N0.2 kmh N 0.7 mph1.1 kmh 29.39 in995.3 mb 0.00 in0.0 mm 0.00 in0.0 mm 0.00 in0.0 mm
06:49 AM 34.0°F1.1°C 33.5°F0.8°C 98% Calm Calm -- 29.39 in995.3 mb 0.00 in0.0 mm 0.00 in0.0 mm 0.00 in0.0 mm
06:44 AM 34.1°F1.2°C 33.6°F0.9°C 98% 1.1 mph N1.8 kmh N 2.1 mph3.4 kmh 29.39 in995.3 mb 0.00 in0.0 mm 0.00 in0.0 mm 0.00 in0.0 mm
06:39 AM 34.1°F1.2°C 33.6°F0.9°C 98% 0.8 mph NNW1.3 kmh NNW 1.5 mph2.4 kmh 29.40 in995.6 mb 0.00 in0.0 mm 0.00 in0.0 mm 0.00 in0.0 mm
06:34 AM 34.3°F1.3°C 33.8°F1.0°C 98% Calm Calm 0.3 mph0.5 kmh 29.39 in995.3 mb 0.00 in0.0 mm 0.00 in0.0 mm 0.00 in0.0 mm
06:29 AM 34.2°F1.2°C 33.7°F0.9°C 98% Calm Calm -- 29.39 in995.3 mb 0.00 in0.0 mm 0.00 in0.0 mm 0.00 in0.0 mm
06:24 AM 34.1°F1.2°C 33.6°F0.9°C 98% Calm Calm -- 29.39 in995.3 mb 0.00 in0.0 mm 0.00 in0.0 mm 0.00 in0.0 mm
06:19 AM 34.0°F1.1°C 33.5°F0.8°C 98% Calm Calm -- 29.39 in995.3 mb 0.00 in0.0 mm 0.00 in0.0 mm 0.00 in0.0 mm
06:14 AM 33.8°F1.0°C 32.8°F0.4°C 96% Calm Calm -- 29.39 in995.3 mb 0.00 in0.0 mm 0.00 in0.0 mm 0.00 in0.0 mm
06:09 AM 33.7°F0.9°C 32.7°F0.4°C 96% Calm Calm -- 29.39 in995.3 mb 0.00 in0.0 mm 0.00 in0.0 mm 0.00 in0.0 mm
06:04 AM 33.7°F0.9°C 32.9°F0.5°C 97% Calm Calm -- 29.39 in995.3 mb 0.00 in0.0 mm 0.00 in0.0 mm 0.00 in0.0 mm
05:59 AM 33.8°F1.0°C 33.0°F0.6°C 97% Calm Calm -- 29.39 in995.3 mb 0.00 in0.0 mm 0.00 in0.0 mm 0.00 in0.0 mm
05:54 AM 33.8°F1.0°C 33.0°F0.6°C 97% Calm Calm -- 29.38 in994.9 mb 0.00 in0.0 mm 0.00 in0.0 mm 0.00 in0.0 mm
05:49 AM 33.8°F1.0°C 32.8°F0.4°C 96% Calm Calm -- 29.39 in995.3 mb 0.00 in0.0 mm 0.00 in0.0 mm 0.00 in0.0 mm
05:44 AM 33.8°F1.0°C 33.0°F0.6°C 97% 0.1 mph NNW0.2 kmh NNW 0.3 mph0.5 kmh 29.38 in994.9 mb 0.00 in0.0 mm 0.00 in0.0 mm 0.00 in0.0 mm
05:39 AM 33.8°F1.0°C 32.8°F0.4°C 96% Calm Calm -- 29.38 in994.9 mb 0.00 in0.0 mm 0.00 in0.0 mm 0.00 in0.0 mm
05:34 AM 33.8°F1.0°C 33.0°F0.6°C 97% Calm Calm -- 29.38 in994.9 mb 0.00 in0.0 mm 0.00 in0.0 mm 0.00 in0.0 mm
05:29 AM 33.9°F1.1°C 33.1°F0.6°C 97% Calm Calm 0.3 mph0.5 kmh 29.38 in994.9 mb 0.00 in0.0 mm 0.00 in0.0 mm 0.00 in0.0 mm
05:24 AM 34.0°F1.1°C 33.2°F0.7°C 97% 0.9 mph WNW1.4 kmh WNW 2.0 mph3.2 kmh 29.38 in994.9 mb 0.00 in0.0 mm 0.00 in0.0 mm 0.00 in0.0 mm
05:19 AM 33.9°F1.1°C 33.1°F0.6°C 97% Calm Calm -- 29.38 in994.9 mb 0.00 in0.0 mm 0.00 in0.0 mm 0.00 in0.0 mm
05:14 AM 34.0°F1.1°C 33.2°F0.7°C 97% Calm Calm -- 29.38 in994.9 mb 0.00 in0.0 mm 0.00 in0.0 mm 0.00 in0.0 mm
05:09 AM 34.1°F1.2°C 33.1°F0.6°C 96% Calm Calm -- 29.38 in994.9 mb 0.00 in0.0 mm 0.00 in0.0 mm 0.00 in0.0 mm
05:04 AM 34.2°F1.2°C 33.4°F0.8°C 97% 0.1 mph NNW0.2 kmh NNW 0.6 mph1.0 kmh 29.38 in994.9 mb 0.00 in0.0 mm 0.00 in0.0 mm 0.00 in0.0 mm
04:59 AM 34.3°F1.3°C 33.5°F0.8°C 97% 0.5 mph NW0.8 kmh NW 0.7 mph1.1 kmh 29.38 in994.9 mb 0.00 in0.0 mm 0.00 in0.0 mm 0.00 in0.0 mm
04:54 AM 34.1°F1.2°C 33.1°F0.6°C 96% Calm Calm 0.3 mph0.5 kmh 29.38 in994.9 mb 0.00 in0.0 mm 0.00 in0.0 mm 0.00 in0.0 mm
04:49 AM 34.0°F1.1°C 33.0°F0.6°C 96% Calm Calm -- 29.38 in994.9 mb 0.00 in0.0 mm 0.00 in0.0 mm 0.00 in0.0 mm
04:44 AM 34.0°F1.1°C 33.2°F0.7°C 97% Calm Calm -- 29.38 in994.9 mb 0.00 in0.0 mm 0.00 in0.0 mm 0.00 in0.0 mm
04:39 AM 33.8°F1.0°C 32.8°F0.4°C 96% Calm Calm -- 29.38 in994.9 mb 0.00 in0.0 mm 0.00 in0.0 mm 0.00 in0.0 mm
04:34 AM 33.7°F0.9°C 32.9°F0.5°C 97% Calm Calm -- 29.38 in994.9 mb 0.00 in0.0 mm 0.00 in0.0 mm 0.00 in0.0 mm
04:29 AM 33.6°F0.9°C 32.8°F0.4°C 97% Calm Calm -- 29.38 in994.9 mb 0.00 in0.0 mm 0.00 in0.0 mm 0.00 in0.0 mm
04:24 AM 33.5°F0.8°C 32.7°F0.4°C 97% Calm Calm -- 29.37 in994.6 mb 0.00 in0.0 mm 0.00 in0.0 mm 0.00 in0.0 mm
04:19 AM 33.5°F0.8°C 32.5°F0.3°C 96% Calm Calm -- 29.37 in994.6 mb 0.00 in0.0 mm 0.00 in0.0 mm 0.00 in0.0 mm
04:14 AM 33.4°F0.8°C 32.6°F0.3°C 97% Calm Calm -- 29.37 in994.6 mb 0.00 in0.0 mm 0.00 in0.0 mm 0.00 in0.0 mm
04:09 AM 33.2°F0.7°C 32.2°F0.1°C 96% Calm Calm -- 29.37 in994.6 mb 0.00 in0.0 mm 0.00 in0.0 mm 0.00 in0.0 mm
04:04 AM 33.2°F0.7°C 32.4°F0.2°C 97% Calm Calm -- 29.37 in994.6 mb 0.00 in0.0 mm 0.00 in0.0 mm 0.00 in0.0 mm
03:59 AM 33.1°F0.6°C 32.3°F0.2°C 97% Calm Calm -- 29.37 in994.6 mb 0.00 in0.0 mm 0.00 in0.0 mm 0.00 in0.0 mm
03:54 AM 33.0°F0.6°C 32.2°F0.1°C 97% Calm Calm -- 29.37 in994.6 mb 0.00 in0.0 mm 0.00 in0.0 mm 0.00 in0.0 mm
03:49 AM 32.8°F0.4°C 31.8°F-0.1°C 96% Calm Calm -- 29.38 in994.9 mb 0.00 in0.0 mm 0.00 in0.0 mm 0.00 in0.0 mm
03:44 AM 32.8°F0.4°C 32.0°F0.0°C 97% Calm Calm -- 29.37 in994.6 mb 0.00 in0.0 mm 0.00 in0.0 mm 0.00 in0.0 mm
03:39 AM 32.8°F0.4°C 32.0°F0.0°C 97% Calm Calm -- 29.38 in994.9 mb 0.00 in0.0 mm 0.00 in0.0 mm 0.00 in0.0 mm
03:34 AM 32.8°F0.4°C 31.8°F-0.1°C 96% Calm Calm -- 29.38 in994.9 mb 0.00 in0.0 mm 0.00 in0.0 mm 0.00 in0.0 mm
03:29 AM 32.8°F0.4°C 32.0°F0.0°C 97% Calm Calm -- 29.38 in994.9 mb 0.00 in0.0 mm 0.00 in0.0 mm 0.00 in0.0 mm
03:24 AM 33.0°F0.6°C 32.2°F0.1°C 97% Calm Calm -- 29.38 in994.9 mb 0.00 in0.0 mm 0.00 in0.0 mm 0.00 in0.0 mm
03:19 AM 33.0°F0.6°C 32.2°F0.1°C 97% Calm Calm -- 29.38 in994.9 mb 0.00 in0.0 mm 0.00 in0.0 mm 0.00 in0.0 mm
03:14 AM 33.1°F0.6°C 32.3°F0.2°C 97% Calm Calm -- 29.38 in994.9 mb 0.00 in0.0 mm 0.00 in0.0 mm 0.00 in0.0 mm
03:09 AM 33.3°F0.7°C 32.3°F0.2°C 96% Calm Calm -- 29.38 in994.9 mb 0.00 in0.0 mm 0.00 in0.0 mm 0.00 in0.0 mm
03:04 AM 33.6°F0.9°C 32.8°F0.4°C 97% Calm Calm -- 29.38 in994.9 mb 0.00 in0.0 mm 0.00 in0.0 mm 0.00 in0.0 mm
02:59 AM 33.6°F0.9°C 32.8°F0.4°C 97% Calm Calm -- 29.38 in994.9 mb 0.00 in0.0 mm 0.00 in0.0 mm 0.00 in0.0 mm
02:54 AM 33.6°F0.9°C 32.6°F0.3°C 96% Calm Calm -- 29.38 in994.9 mb 0.00 in0.0 mm 0.00 in0.0 mm 0.00 in0.0 mm
02:49 AM 33.7°F0.9°C 32.9°F0.5°C 97% Calm Calm -- 29.39 in995.3 mb 0.00 in0.0 mm 0.00 in0.0 mm 0.00 in0.0 mm
02:44 AM 33.7°F0.9°C 32.7°F0.4°C 96% Calm Calm -- 29.39 in995.3 mb 0.00 in0.0 mm 0.00 in0.0 mm 0.00 in0.0 mm
02:39 AM 33.8°F1.0°C 33.0°F0.6°C 97% Calm Calm -- 29.39 in995.3 mb 0.00 in0.0 mm 0.00 in0.0 mm 0.00 in0.0 mm
02:34 AM 33.8°F1.0°C 33.0°F0.6°C 97% Calm Calm -- 29.39 in995.3 mb 0.00 in0.0 mm 0.00 in0.0 mm 0.00 in0.0 mm
02:29 AM 33.8°F1.0°C 33.0°F0.6°C 97% Calm Calm -- 29.39 in995.3 mb 0.00 in0.0 mm 0.00 in0.0 mm 0.00 in0.0 mm
02:24 AM 33.7°F0.9°C 32.7°F0.4°C 96% Calm Calm -- 29.39 in995.3 mb 0.00 in0.0 mm 0.00 in0.0 mm 0.00 in0.0 mm
02:19 AM 33.7°F0.9°C 32.7°F0.4°C 96% Calm Calm -- 29.39 in995.3 mb 0.00 in0.0 mm 0.00 in0.0 mm 0.00 in0.0 mm
02:14 AM 33.8°F1.0°C 32.5°F0.3°C 95% Calm Calm -- 29.39 in995.3 mb 0.00 in0.0 mm 0.00 in0.0 mm 0.00 in0.0 mm
02:09 AM 33.9°F1.1°C 32.9°F0.5°C 96% Calm Calm -- 29.39 in995.3 mb 0.00 in0.0 mm 0.00 in0.0 mm 0.00 in0.0 mm
02:04 AM 33.7°F0.9°C 32.7°F0.4°C 96% Calm Calm -- 29.39 in995.3 mb 0.00 in0.0 mm 0.00 in0.0 mm 0.00 in0.0 mm
01:59 AM 33.9°F1.1°C 32.9°F0.5°C 96% Calm Calm -- 29.39 in995.3 mb 0.00 in0.0 mm 0.00 in0.0 mm 0.00 in0.0 mm
01:54 AM 34.1°F1.2°C 32.8°F0.4°C 95% Calm Calm -- 29.39 in995.3 mb 0.00 in0.0 mm 0.00 in0.0 mm 0.00 in0.0 mm
01:49 AM 34.1°F1.2°C 32.8°F0.4°C 95% Calm Calm -- 29.39 in995.3 mb 0.00 in0.0 mm 0.00 in0.0 mm 0.00 in0.0 mm
01:44 AM 34.2°F1.2°C 33.2°F0.7°C 96% Calm Calm -- 29.39 in995.3 mb 0.00 in0.0 mm 0.00 in0.0 mm 0.00 in0.0 mm
01:39 AM 34.3°F1.3°C 33.0°F0.6°C 95% Calm Calm -- 29.39 in995.3 mb 0.00 in0.0 mm 0.00 in0.0 mm 0.00 in0.0 mm
01:34 AM 34.6°F1.4°C 33.6°F0.9°C 96% Calm Calm -- 29.39 in995.3 mb 0.00 in0.0 mm 0.00 in0.0 mm 0.00 in0.0 mm
01:29 AM 34.8°F1.6°C 33.5°F0.8°C 95% Calm Calm -- 29.39 in995.3 mb 0.00 in0.0 mm 0.00 in0.0 mm 0.00 in0.0 mm
01:24 AM 35.1°F1.7°C 33.8°F1.0°C 95% Calm Calm -- 29.39 in995.3 mb 0.00 in0.0 mm 0.00 in0.0 mm 0.00 in0.0 mm
01:19 AM 35.3°F1.8°C 34.0°F1.1°C 95% Calm Calm -- 29.39 in995.3 mb 0.00 in0.0 mm 0.00 in0.0 mm 0.00 in0.0 mm
01:14 AM 35.4°F1.9°C 34.4°F1.3°C 96% Calm Calm -- 29.39 in995.3 mb 0.00 in0.0 mm 0.00 in0.0 mm 0.00 in0.0 mm
01:09 AM 35.6°F2.0°C 34.3°F1.3°C 95% Calm Calm -- 29.39 in995.3 mb 0.00 in0.0 mm 0.00 in0.0 mm 0.00 in0.0 mm
01:04 AM 35.6°F2.0°C 34.3°F1.3°C 95% Calm Calm -- 29.39 in995.3 mb 0.00 in0.0 mm 0.00 in0.0 mm 0.00 in0.0 mm
12:59 AM 35.6°F2.0°C 34.3°F1.3°C 95% Calm Calm -- 29.39 in995.3 mb 0.00 in0.0 mm 0.00 in0.0 mm 0.00 in0.0 mm
12:54 AM 35.8°F2.1°C 34.8°F1.6°C 96% Calm Calm -- 29.39 in995.3 mb 0.00 in0.0 mm 0.00 in0.0 mm 0.00 in0.0 mm
12:49 AM 36.0°F2.2°C 34.7°F1.5°C 95% Calm Calm -- 29.39 in995.3 mb 0.00 in0.0 mm 0.00 in0.0 mm 0.00 in0.0 mm
12:44 AM 36.0°F2.2°C 35.0°F1.7°C 96% Calm Calm -- 29.39 in995.3 mb 0.00 in0.0 mm 0.00 in0.0 mm 0.00 in0.0 mm
12:39 AM 35.8°F2.1°C 34.8°F1.6°C 96% Calm Calm -- 29.40 in995.6 mb 0.00 in0.0 mm 0.00 in0.0 mm 0.00 in0.0 mm
12:34 AM 35.8°F2.1°C 34.8°F1.6°C 96% Calm Calm -- 29.40 in995.6 mb 0.00 in0.0 mm 0.00 in0.0 mm 0.00 in0.0 mm
12:29 AM 36.1°F2.3°C 35.1°F1.7°C 96% Calm Calm -- 29.40 in995.6 mb 0.00 in0.0 mm 0.00 in0.0 mm 0.00 in0.0 mm
12:24 AM 36.1°F2.3°C 35.1°F1.7°C 96% Calm Calm -- 29.41 in995.9 mb 0.00 in0.0 mm 0.00 in0.0 mm 0.00 in0.0 mm
12:19 AM 36.2°F2.3°C 35.2°F1.8°C 96% Calm Calm -- 29.41 in995.9 mb 0.00 in0.0 mm 0.00 in0.0 mm 0.00 in0.0 mm
12:14 AM 36.6°F2.6°C 35.6°F2.0°C 96% Calm Calm -- 29.41 in995.9 mb 0.00 in0.0 mm 0.00 in0.0 mm 0.00 in0.0 mm
12:09 AM 36.8°F2.7°C 35.2°F1.8°C 94% Calm Calm -- 29.41 in995.9 mb 0.00 in0.0 mm 0.00 in0.0 mm 0.00 in0.0 mm
12:04 AM 36.8°F2.7°C 35.2°F1.8°C 94% Calm Calm -- 29.41 in995.9 mb 0.00 in0.0 mm 0.00 in0.0 mm 0.00 in0.0 mm
12:00 AM 36.7°F2.6°C 35.1°F1.7°C 94% Calm Calm -- 29.41 in995.9 mb 0.00 in0.0 mm 0.00 in0.0 mm 0.00 in0.0 mm